This is the latest recevied weather packets stored in our database for station/object WP3OF-5. If no packets are shown the sender has not sent any weather packets the latest 10 day(s).
| Time | Temp. | Humidity | Pressure | Rain* | Wind** | Luminosity | Snow |
|---|---|---|---|---|---|---|---|
| 1777990496 | 29.44° C | 62% | 1017.9 hPa | 0 mm | - | - | - |
| 1777989890 | 29.44° C | 62% | 1017.9 hPa | 0 mm | - | - | - |
| 1777989586 | 30° C | 62% | 1017.8 hPa | 0 mm | - | - | - |
| 1777989283 | 29.44° C | 62% | 1018.1 hPa | 0 mm | - | - | - |
| 1777988979 | 30° C | 62% | 1017.9 hPa | 0 mm | - | - | - |
| 1777988676 | 29.44° C | 63% | 1017.8 hPa | 0 mm | - | - | - |
| 1777988372 | 29.44° C | 63% | 1018 hPa | 0 mm | - | - | - |
| 1777988070 | 29.44° C | 63% | 1017.6 hPa | 0 mm | - | - | - |
| 1777987765 | 30° C | 62% | 1017.5 hPa | 0 mm | - | - | - |
| 1777987462 | 28.89° C | 65% | 1017.6 hPa | 0 mm | - | - | - |
| 1777987160 | 28.89° C | 64% | 1017.5 hPa | 0 mm | - | - | - |
| 1777986856 | 28.89° C | 65% | 1017.8 hPa | 0 mm | - | - | - |
| 1777986554 | 28.89° C | 65% | 1017.4 hPa | 0 mm | - | - | - |
| 1777986252 | 28.89° C | 66% | 1017.5 hPa | 0 mm | - | - | - |
| 1777985949 | 28.89° C | 67% | 1017.4 hPa | 0 mm | - | - | - |
| 1777985647 | 28.33° C | 70% | 1017.8 hPa | 0 mm | - | - | - |
| 1777985343 | 27.78° C | 73% | 1017.4 hPa | 0 mm | - | - | - |
| 1777985040 | 27.22° C | 74% | 1017.6 hPa | 0 mm | - | - | - |
| 1777984736 | 26.67° C | 76% | 1017.3 hPa | 0 mm | - | - | - |
| 1777984433 | 26.11° C | 81% | 1017.5 hPa | 0 mm | - | - | - |
| 1777984129 | 25.56° C | 82% | 1017.6 hPa | 0 mm | - | - | - |
| 1777983826 | 25° C | 87% | 1017.5 hPa | 0 mm | - | - | - |
| 1777983523 | 25° C | 88% | 1017.3 hPa | 0 mm | - | - | - |
| 1777983220 | 24.44° C | 89% | 1017.4 hPa | 0 mm | - | - | - |
| 1777982916 | 24.44° C | 90% | 1017.4 hPa | 0 mm | - | - | - |
* Rain latest hour (hover to see other rain measurements)
** Current wind speed in m/s (hover to see current wind gust speed)